createdAt,value
2024-05-09T00:00:36.207Z,92.69
2024-05-09T00:03:07.900Z,92.66
2024-05-09T00:05:35.862Z,92.72
2024-05-09T00:08:03.123Z,92.87
2024-05-09T00:10:36.032Z,92.63
2024-05-09T00:13:05.571Z,92.84
2024-05-09T00:15:33.462Z,92.61
2024-05-09T00:18:00.598Z,92.73
2024-05-09T00:20:35.960Z,93.02
2024-05-09T00:23:07.396Z,93.07
2024-05-09T00:25:34.601Z,92.92
2024-05-09T00:28:01.266Z,93.19
2024-05-09T00:30:33.827Z,93.29
2024-05-09T00:33:04.622Z,92.88
2024-05-09T00:35:32.158Z,92.64
2024-05-09T00:37:58.938Z,92.70
2024-05-09T00:40:34.513Z,92.70
2024-05-09T00:43:09.000Z,92.56
2024-05-09T00:45:35.958Z,92.46
2024-05-09T00:48:08.651Z,92.69
2024-05-09T00:50:39.808Z,92.73
2024-05-09T00:53:10.211Z,93.07
2024-05-09T00:55:38.878Z,92.71
2024-05-09T00:58:09.031Z,92.59
2024-05-09T01:00:39.764Z,92.83
2024-05-09T01:03:09.738Z,93.00
2024-05-09T01:05:39.378Z,92.72
2024-05-09T01:08:07.109Z,92.74
2024-05-09T01:10:35.474Z,92.79
2024-05-09T01:13:04.295Z,92.68
2024-05-09T01:15:31.260Z,92.77
2024-05-09T01:17:58.829Z,92.61
2024-05-09T01:20:36.990Z,93.20
2024-05-09T01:23:09.566Z,92.86
2024-05-09T01:25:36.742Z,93.08
2024-05-09T01:28:03.563Z,93.09
2024-05-09T01:30:34.899Z,93.14
2024-05-09T01:33:05.648Z,93.10
2024-05-09T01:35:33.709Z,93.06
2024-05-09T01:38:00.415Z,93.21
2024-05-09T01:40:36.347Z,92.91
2024-05-09T01:43:06.260Z,92.84
2024-05-09T01:45:33.088Z,92.83
2024-05-09T01:48:00.117Z,93.05
2024-05-09T01:50:36.918Z,92.96
2024-05-09T01:53:07.409Z,93.01
2024-05-09T01:55:34.157Z,92.86
2024-05-09T01:58:00.894Z,92.81
2024-05-09T02:00:37.872Z,92.84
2024-05-09T02:03:15.387Z,92.73
2024-05-09T02:05:49.569Z,92.82
2024-05-09T02:08:20.842Z,92.42
2024-05-09T02:10:49.364Z,92.70
2024-05-09T02:13:16.735Z,92.77
2024-05-09T02:15:43.475Z,92.58
2024-05-09T02:18:10.607Z,92.70
2024-05-09T02:20:40.763Z,92.81
2024-05-09T02:23:09.167Z,93.09
2024-05-09T02:25:36.025Z,92.54
2024-05-09T02:28:02.784Z,92.79
2024-05-09T02:30:38.033Z,92.75
2024-05-09T02:33:08.709Z,92.84
2024-05-09T02:35:36.251Z,92.87
2024-05-09T02:38:03.159Z,93.00
2024-05-09T02:40:36.646Z,92.94
2024-05-09T02:43:10.386Z,92.49
2024-05-09T02:45:38.467Z,92.52
2024-05-09T02:48:06.032Z,92.44
2024-05-09T02:50:38.075Z,92.45
2024-05-09T02:53:11.264Z,92.50
2024-05-09T02:55:38.730Z,93.15
2024-05-09T02:58:08.986Z,92.61
2024-05-09T03:00:39.925Z,93.00
2024-05-09T03:03:10.994Z,92.81
2024-05-09T03:05:40.148Z,93.05
2024-05-09T03:08:07.514Z,92.86
2024-05-09T03:10:36.776Z,92.90
2024-05-09T03:13:14.391Z,92.82
2024-05-09T03:15:42.595Z,92.92
2024-05-09T03:18:09.974Z,92.89
2024-05-09T03:20:37.944Z,92.87
2024-05-09T03:23:08.060Z,92.93
2024-05-09T03:25:35.995Z,92.91
2024-05-09T03:28:02.849Z,92.70
2024-05-09T03:30:39.076Z,93.11
2024-05-09T03:33:20.076Z,93.04
2024-05-09T03:35:48.256Z,93.20
2024-05-09T03:38:15.639Z,92.96
2024-05-09T03:40:50.384Z,93.02
2024-05-09T03:43:18.388Z,92.92
2024-05-09T03:45:46.754Z,93.03
2024-05-09T03:48:13.538Z,92.90
2024-05-09T03:50:40.692Z,93.06
2024-05-09T03:53:10.655Z,92.77
2024-05-09T03:55:37.377Z,92.96
2024-05-09T03:58:04.159Z,93.10
2024-05-09T04:00:37.375Z,92.54
2024-05-09T04:03:08.936Z,92.53
2024-05-09T04:05:39.496Z,92.38
2024-05-09T04:08:06.717Z,91.99
2024-05-09T04:10:34.921Z,92.36
2024-05-09T04:13:03.188Z,92.40
2024-05-09T04:15:30.309Z,92.93
2024-05-09T04:17:57.201Z,92.50
2024-05-09T04:20:33.410Z,92.51
2024-05-09T04:23:13.600Z,92.27
2024-05-09T04:25:45.232Z,92.31
2024-05-09T04:28:12.469Z,92.04
2024-05-09T04:30:41.170Z,91.54
2024-05-09T04:33:12.270Z,92.11
2024-05-09T04:35:42.136Z,91.62
2024-05-09T04:38:09.187Z,92.00
2024-05-09T04:40:37.257Z,91.61
2024-05-09T04:43:14.735Z,91.54
2024-05-09T04:45:41.825Z,91.63
2024-05-09T04:48:08.976Z,91.39
2024-05-09T04:50:38.648Z,91.49
2024-05-09T04:53:08.455Z,91.14
2024-05-09T04:55:36.534Z,90.35
2024-05-09T04:58:03.277Z,90.65
2024-05-09T05:00:35.957Z,90.44
2024-05-09T05:03:07.468Z,90.62
2024-05-09T05:05:38.132Z,90.64
2024-05-09T05:08:05.733Z,90.18
2024-05-09T05:10:36.220Z,90.67
2024-05-09T05:13:17.958Z,89.78
2024-05-09T05:15:49.159Z,90.30
2024-05-09T05:18:16.589Z,89.16
2024-05-09T05:20:43.978Z,89.80
2024-05-09T05:23:12.454Z,87.97
2024-05-09T05:25:40.055Z,88.27
2024-05-09T05:28:07.422Z,89.83
2024-05-09T05:30:35.566Z,88.21
2024-05-09T05:33:02.571Z,88.91
2024-05-09T05:35:29.438Z,89.51
2024-05-09T05:37:56.234Z,89.05
2024-05-09T05:40:32.111Z,87.90
2024-05-09T05:43:03.806Z,87.93
2024-05-09T05:45:30.428Z,87.22
2024-05-09T05:47:57.363Z,86.79
2024-05-09T05:50:31.932Z,88.35
2024-05-09T05:53:02.380Z,85.08
2024-05-09T05:55:29.013Z,87.60
2024-05-09T05:57:55.640Z,88.08
2024-05-09T06:00:29.717Z,85.85
2024-05-09T06:03:04.638Z,86.18
2024-05-09T06:05:31.568Z,85.65
2024-05-09T06:07:58.308Z,84.29
2024-05-09T06:10:30.146Z,85.42
2024-05-09T06:13:04.118Z,83.94
2024-05-09T06:15:30.729Z,85.14
2024-05-09T06:17:57.624Z,83.21
2024-05-09T06:20:33.907Z,83.65
2024-05-09T06:23:03.520Z,84.05
2024-05-09T06:25:30.326Z,84.14
2024-05-09T06:27:57.039Z,82.56
2024-05-09T06:30:35.032Z,81.49
2024-05-09T06:33:06.706Z,82.32
2024-05-09T06:35:34.146Z,81.94
2024-05-09T06:38:01.548Z,81.73
2024-05-09T06:40:36.733Z,81.53
2024-05-09T06:43:17.095Z,81.60
2024-05-09T06:45:47.338Z,81.95
2024-05-09T06:48:14.617Z,78.46
2024-05-09T06:50:41.797Z,81.72
2024-05-09T06:53:09.191Z,80.09
2024-05-09T06:55:37.229Z,78.96
2024-05-09T06:58:06.015Z,79.50
2024-05-09T07:00:38.912Z,78.04
2024-05-09T07:03:12.957Z,76.67
2024-05-09T07:05:41.865Z,77.51
2024-05-09T07:08:08.648Z,76.01
2024-05-09T07:10:36.543Z,74.84
2024-05-09T07:13:11.409Z,74.27
2024-05-09T07:15:38.723Z,78.65
2024-05-09T07:18:09.866Z,76.58
2024-05-09T07:20:36.818Z,74.38
2024-05-09T07:23:03.582Z,77.38
2024-05-09T07:25:30.473Z,74.00
2024-05-09T07:27:57.304Z,75.33
2024-05-09T07:30:32.525Z,75.71
2024-05-09T07:33:02.284Z,75.25
2024-05-09T07:35:29.676Z,73.80
2024-05-09T07:37:56.650Z,72.19
2024-05-09T07:40:32.449Z,72.53
2024-05-09T07:43:08.412Z,74.68
2024-05-09T07:52:32.437Z,69.19
2024-05-09T07:53:39.600Z,68.67
2024-05-09T07:56:11.619Z,70.13
2024-05-09T07:58:39.200Z,68.20
2024-05-09T08:01:06.086Z,69.52
2024-05-09T08:03:33.376Z,66.63
2024-05-09T08:06:00.309Z,67.70
2024-05-09T08:08:26.965Z,66.87
2024-05-09T08:10:53.832Z,68.02
2024-05-09T08:13:20.746Z,62.44
2024-05-09T08:15:47.520Z,65.76
2024-05-09T08:18:14.339Z,62.73
2024-05-09T08:20:42.222Z,65.04
2024-05-09T08:23:08.922Z,60.40
2024-05-09T08:25:35.518Z,61.26
2024-05-09T08:28:04.434Z,66.93
2024-05-09T08:30:36.695Z,65.80
2024-05-09T08:33:06.300Z,62.92
2024-05-09T08:35:34.004Z,65.10
2024-05-09T08:38:05.251Z,63.56
2024-05-09T08:40:35.840Z,61.16
2024-05-09T08:43:10.043Z,65.17
2024-05-09T08:45:42.121Z,63.65
2024-05-09T08:48:12.033Z,62.65
2024-05-09T08:50:40.964Z,60.28
2024-05-09T08:53:08.749Z,65.37
2024-05-09T08:55:40.187Z,63.75
2024-05-09T08:58:12.763Z,62.71
2024-05-09T09:00:42.110Z,60.23
2024-05-09T09:03:10.173Z,60.19
2024-05-09T09:05:39.830Z,61.18
2024-05-09T09:08:08.638Z,61.83
2024-05-09T09:10:35.940Z,58.25
2024-05-09T09:13:09.586Z,54.64
2024-05-09T09:15:50.207Z,59.11
2024-05-09T09:18:18.048Z,59.90
2024-05-09T09:20:45.143Z,58.51
2024-05-09T09:23:11.814Z,58.76
2024-05-09T09:25:42.283Z,58.89
2024-05-09T09:28:09.686Z,59.50
2024-05-09T09:30:43.046Z,57.66
2024-05-09T09:33:11.294Z,60.06
2024-05-09T09:35:40.570Z,59.00
2024-05-09T09:38:09.920Z,59.48
2024-05-09T09:40:45.760Z,63.43
2024-05-09T09:43:19.779Z,57.50
2024-05-09T09:45:55.210Z,62.76
2024-05-09T09:48:22.998Z,59.50
2024-05-09T09:50:51.583Z,52.13
2024-05-09T09:53:19.491Z,54.57
2024-05-09T09:55:46.475Z,57.42
2024-05-09T09:58:16.381Z,53.47
2024-05-09T10:00:43.843Z,50.67
2024-05-09T10:03:10.899Z,52.41
2024-05-09T10:05:39.324Z,56.07
2024-05-09T10:08:09.938Z,55.54
2024-05-09T10:10:37.189Z,55.49
2024-05-09T10:13:05.427Z,55.02
2024-05-09T10:15:55.822Z,56.23
2024-05-09T10:18:30.186Z,53.61
2024-05-09T10:20:59.511Z,59.08
2024-05-09T10:23:26.796Z,57.88
2024-05-09T10:26:01.362Z,59.77
2024-05-09T10:28:29.434Z,59.07
2024-05-09T10:31:09.822Z,58.48
2024-05-09T10:33:45.357Z,62.40
2024-05-09T10:36:19.811Z,57.43
2024-05-09T10:38:46.777Z,61.56
2024-05-09T10:41:16.667Z,57.59
2024-05-09T10:43:43.482Z,60.05
2024-05-09T10:46:11.291Z,57.75
2024-05-09T10:48:39.182Z,56.80
2024-05-09T10:51:06.054Z,53.96
2024-05-09T10:53:43.555Z,54.64
2024-05-09T10:56:10.815Z,59.21
2024-05-09T10:58:37.720Z,58.16
2024-05-09T11:01:07.041Z,55.88
2024-05-09T11:03:35.333Z,56.26
2024-05-09T11:06:02.697Z,59.98
2024-05-09T11:08:34.907Z,58.92
2024-05-09T11:11:06.674Z,58.25
2024-05-09T11:13:38.274Z,57.99
2024-05-09T11:16:07.105Z,58.72
2024-05-09T11:18:38.009Z,57.06
2024-05-09T11:21:12.852Z,59.61
2024-05-09T11:23:40.280Z,61.08
2024-05-09T11:26:07.510Z,55.54
2024-05-09T11:28:34.241Z,59.27
2024-05-09T11:31:09.160Z,55.67
2024-05-09T11:33:38.762Z,52.95
2024-05-09T11:36:06.481Z,58.53
2024-05-09T11:38:33.477Z,55.83
2024-05-09T11:41:00.224Z,55.75
2024-05-09T11:43:26.966Z,58.96
2024-05-09T11:45:53.826Z,55.03
2024-05-09T11:48:20.718Z,58.38
2024-05-09T11:50:47.473Z,52.92
2024-05-09T11:53:14.206Z,55.52
2024-05-09T11:55:40.941Z,50.96
2024-05-09T11:58:08.410Z,56.05
2024-05-09T12:00:37.459Z,54.47
2024-05-09T12:03:05.840Z,52.06
2024-05-09T12:05:34.228Z,55.03
2024-05-09T12:08:01.530Z,56.20
2024-05-09T12:10:33.425Z,52.50
2024-05-09T12:13:04.166Z,47.72
2024-05-09T12:15:32.577Z,53.54
2024-05-09T12:18:02.790Z,52.85
2024-05-09T12:20:36.650Z,53.26
2024-05-09T12:23:05.846Z,53.38
2024-05-09T12:25:32.521Z,53.01
2024-05-09T12:27:59.555Z,52.15
2024-05-09T12:30:35.331Z,52.04
2024-05-09T12:33:06.178Z,52.30
2024-05-09T12:35:33.181Z,48.41
2024-05-09T12:38:00.020Z,49.27
2024-05-09T12:40:34.822Z,54.32
2024-05-09T12:43:05.328Z,48.87
2024-05-09T12:45:32.314Z,46.22
2024-05-09T12:47:59.399Z,46.39
2024-05-09T12:50:32.291Z,49.66
2024-05-09T12:53:01.094Z,46.22
2024-05-09T12:55:28.742Z,50.01
2024-05-09T12:57:58.809Z,51.35
2024-05-09T13:00:31.709Z,45.45
2024-05-09T13:03:01.216Z,46.51
2024-05-09T13:05:28.589Z,44.74
2024-05-09T13:07:56.645Z,49.46
2024-05-09T13:10:30.951Z,50.89
2024-05-09T13:13:00.243Z,46.66
2024-05-09T13:15:27.355Z,42.78
2024-05-09T13:17:57.160Z,48.81
2024-05-09T13:20:32.073Z,48.24
2024-05-09T13:23:02.503Z,47.43
2024-05-09T13:25:29.386Z,41.12
2024-05-09T13:27:56.821Z,43.08
2024-05-09T13:30:29.847Z,43.79
2024-05-09T13:33:06.631Z,41.08
2024-05-09T13:35:37.086Z,43.57
2024-05-09T13:38:04.878Z,41.90
2024-05-09T13:40:34.868Z,40.51
2024-05-09T13:43:06.298Z,41.54
2024-05-09T13:45:34.223Z,40.71
2024-05-09T13:48:02.518Z,40.55
2024-05-09T13:50:35.890Z,41.82
2024-05-09T13:53:08.671Z,39.32
2024-05-09T13:55:39.471Z,40.32
2024-05-09T13:58:06.903Z,37.24
2024-05-09T14:00:44.078Z,42.83
2024-05-09T14:03:16.357Z,40.21
2024-05-09T14:05:44.264Z,42.90
2024-05-09T14:08:11.638Z,39.91
2024-05-09T14:10:44.030Z,37.04
2024-05-09T14:13:11.415Z,36.36
2024-05-09T14:15:38.277Z,41.65
2024-05-09T14:18:05.984Z,42.87
2024-05-09T14:20:33.160Z,38.10
2024-05-09T14:23:02.893Z,38.72
2024-05-09T14:25:31.861Z,37.09
2024-05-09T14:27:58.892Z,37.17
2024-05-09T14:30:34.663Z,37.66
2024-05-09T14:33:05.036Z,36.85
2024-05-09T14:35:32.145Z,40.75
2024-05-09T14:37:59.170Z,37.70
2024-05-09T14:40:36.452Z,44.33
2024-05-09T14:43:08.624Z,33.73
2024-05-09T14:45:35.635Z,36.22
2024-05-09T14:48:03.576Z,35.36
2024-05-09T14:50:36.076Z,36.56
2024-05-09T14:53:06.842Z,38.77
2024-05-09T14:55:36.175Z,33.85
2024-05-09T14:58:03.990Z,34.73
2024-05-09T15:00:35.851Z,38.50
2024-05-09T15:03:04.966Z,32.40
2024-05-09T15:05:31.906Z,33.83
2024-05-09T15:07:59.417Z,32.74
2024-05-09T15:10:33.976Z,41.25
2024-05-09T15:13:03.474Z,39.57
2024-05-09T15:15:30.724Z,36.36
2024-05-09T15:17:57.771Z,32.21
2024-05-09T15:20:32.961Z,36.09
2024-05-09T15:23:02.914Z,38.29
2024-05-09T15:25:29.784Z,39.09
2024-05-09T15:27:56.798Z,36.64
2024-05-09T15:30:30.918Z,41.52
2024-05-09T15:33:00.904Z,44.54
2024-05-09T15:35:27.930Z,45.17
2024-05-09T15:37:55.021Z,49.83
2024-05-09T15:40:31.176Z,46.17
2024-05-09T15:43:05.752Z,46.09
2024-05-09T15:45:32.853Z,47.90
2024-05-09T15:48:00.295Z,47.53
2024-05-09T15:50:36.210Z,46.91
2024-05-09T15:53:07.442Z,50.31
2024-05-09T15:55:35.005Z,49.63
2024-05-09T15:58:02.912Z,48.41
2024-05-09T16:00:37.482Z,52.81
2024-05-09T16:03:08.178Z,51.14
2024-05-09T16:05:35.183Z,47.59
2024-05-09T16:08:02.451Z,45.63
2024-05-09T16:10:32.853Z,45.96
2024-05-09T16:13:01.590Z,39.88
2024-05-09T16:15:28.621Z,45.17
2024-05-09T16:17:55.537Z,40.97
2024-05-09T16:20:33.938Z,39.06
2024-05-09T16:23:06.461Z,41.21
2024-05-09T16:25:33.548Z,39.27
2024-05-09T16:28:00.630Z,37.16
2024-05-09T16:30:34.075Z,38.82
2024-05-09T16:33:04.306Z,35.44
2024-05-09T16:35:31.869Z,34.34
2024-05-09T16:37:58.793Z,37.00
2024-05-09T16:40:34.397Z,38.70
2024-05-09T16:43:06.134Z,34.20
2024-05-09T16:45:33.346Z,35.98
2024-05-09T16:48:00.960Z,36.05
2024-05-09T16:50:32.723Z,40.00
2024-05-09T16:53:01.929Z,37.64
2024-05-09T16:55:28.854Z,36.55
2024-05-09T16:57:57.241Z,37.08
2024-05-09T17:00:35.242Z,37.35
2024-05-09T17:03:08.680Z,37.10
2024-05-09T17:05:36.295Z,38.34
2024-05-09T17:08:04.053Z,39.44
2024-05-09T17:10:33.786Z,39.66
2024-05-09T17:13:03.028Z,42.19
2024-05-09T17:15:30.412Z,39.53
2024-05-09T17:17:57.410Z,39.68
2024-05-09T17:20:31.669Z,42.69
2024-05-09T17:23:02.631Z,45.82
2024-05-09T17:25:29.466Z,47.00
2024-05-09T17:27:57.009Z,45.96
2024-05-09T17:30:32.061Z,52.01
2024-05-09T17:33:05.736Z,49.74
2024-05-09T17:35:32.852Z,47.94
2024-05-09T17:38:01.415Z,49.80
2024-05-09T17:40:33.557Z,50.64
2024-05-09T17:43:03.524Z,51.83
2024-05-09T17:45:30.782Z,52.34
2024-05-09T17:47:58.154Z,55.21
2024-05-09T17:50:31.506Z,60.58
2024-05-09T17:53:02.694Z,58.94
2024-05-09T17:55:29.668Z,56.92
2024-05-09T17:57:56.811Z,61.31
2024-05-09T18:00:33.484Z,58.02
2024-05-09T18:03:06.222Z,64.12
2024-05-09T18:05:34.315Z,61.74
2024-05-09T18:08:01.146Z,64.45
2024-05-09T18:10:35.194Z,64.47
2024-05-09T18:13:06.075Z,66.24
2024-05-09T18:15:33.728Z,62.26
2024-05-09T18:18:02.852Z,66.84
2024-05-09T18:20:38.149Z,68.11
2024-05-09T18:23:10.882Z,70.73
2024-05-09T18:25:37.665Z,68.12
2024-05-09T18:28:05.371Z,71.84
2024-05-09T18:30:35.409Z,72.28
2024-05-09T18:33:05.550Z,71.38
2024-05-09T18:35:33.586Z,73.89
2024-05-09T18:38:00.566Z,73.93
2024-05-09T18:40:33.991Z,72.64
2024-05-09T18:43:05.946Z,74.25
2024-05-09T18:45:34.211Z,75.62
2024-05-09T18:48:01.227Z,73.31
2024-05-09T18:50:34.544Z,72.24
2024-05-09T18:53:09.920Z,72.23
2024-05-09T18:55:36.902Z,75.89
2024-05-09T18:58:05.035Z,76.82
2024-05-09T19:00:36.243Z,76.16
2024-05-09T19:03:12.228Z,74.84
2024-05-09T19:05:41.499Z,77.68
2024-05-09T19:08:09.185Z,78.08
2024-05-09T19:10:38.942Z,78.96
2024-05-09T19:13:10.526Z,79.07
2024-05-09T19:15:40.280Z,77.72
2024-05-09T19:18:07.930Z,79.04
2024-05-09T19:20:36.501Z,79.92
2024-05-09T19:23:05.562Z,80.58
2024-05-09T19:25:33.177Z,77.68
2024-05-09T19:28:00.916Z,75.87
2024-05-09T19:30:36.757Z,80.00
2024-05-09T19:33:08.057Z,79.08
2024-05-09T19:35:34.903Z,79.60
2024-05-09T19:38:02.207Z,79.89
2024-05-09T19:40:32.135Z,81.97
2024-05-09T19:43:05.597Z,81.64
2024-05-09T19:45:34.431Z,80.51
2024-05-09T19:48:02.224Z,81.03
2024-05-09T19:50:37.199Z,81.32
2024-05-09T19:53:10.207Z,82.85
2024-05-09T19:55:37.570Z,81.09
2024-05-09T19:58:06.988Z,82.59
2024-05-09T20:00:36.950Z,82.38
2024-05-09T20:03:06.478Z,82.36
2024-05-09T20:05:33.820Z,82.32
2024-05-09T20:08:00.820Z,82.17
2024-05-09T20:10:32.170Z,82.49
2024-05-09T20:13:01.132Z,83.83
2024-05-09T20:15:27.875Z,83.12
2024-05-09T20:17:55.137Z,83.81
2024-05-09T20:22:51.920Z,84.74
2024-05-09T20:25:18.810Z,84.41
2024-05-09T20:27:45.494Z,85.50
2024-05-09T20:30:16.988Z,84.89
2024-05-09T20:32:48.271Z,85.71
2024-05-09T20:35:14.958Z,85.06
2024-05-09T20:37:41.598Z,84.89
2024-05-09T20:40:15.356Z,85.54
2024-05-09T20:42:45.366Z,85.39
2024-05-09T20:45:12.032Z,85.01
2024-05-09T20:47:38.911Z,85.15
2024-05-09T20:50:11.394Z,85.76
2024-05-09T20:52:43.228Z,85.14
2024-05-09T20:55:10.380Z,85.25
2024-05-09T20:57:37.099Z,85.59
2024-05-09T21:00:11.902Z,85.28
2024-05-09T21:02:43.692Z,85.64
2024-05-09T21:05:10.622Z,85.35
2024-05-09T21:07:37.423Z,85.38
2024-05-09T21:10:10.135Z,84.09
2024-05-09T21:12:42.143Z,86.50
2024-05-09T21:15:08.854Z,86.97
2024-05-09T21:17:35.599Z,86.19
2024-05-09T21:20:03.599Z,87.14
2024-05-09T21:22:31.097Z,86.61
2024-05-09T21:24:57.844Z,87.18
2024-05-09T21:27:24.689Z,86.82
2024-05-09T21:29:51.359Z,87.61
2024-05-09T21:32:18.038Z,88.05
2024-05-09T21:34:44.821Z,86.29
2024-05-09T21:37:11.717Z,86.96
2024-05-09T21:39:38.383Z,86.94
2024-05-09T21:42:05.386Z,86.92
2024-05-09T21:44:32.052Z,87.16
2024-05-09T21:46:58.699Z,87.20
2024-05-09T21:49:25.578Z,86.24
2024-05-09T21:51:52.315Z,87.31
2024-05-09T21:54:19.052Z,87.82
2024-05-09T21:56:45.670Z,87.91
2024-05-09T21:59:12.294Z,88.05
2024-05-09T22:01:40.029Z,87.98
2024-05-09T22:04:06.793Z,87.98
2024-05-09T22:06:34.036Z,88.09
2024-05-09T22:09:04.974Z,88.51
2024-05-09T22:11:32.326Z,87.58
2024-05-09T22:13:58.985Z,87.54
2024-05-09T22:16:25.762Z,88.38
2024-05-09T22:18:52.468Z,88.13
2024-05-09T22:21:19.130Z,88.21
2024-05-09T22:23:45.731Z,87.91
2024-05-09T22:26:12.536Z,88.41
2024-05-09T22:28:39.159Z,88.43
2024-05-09T22:31:06.100Z,88.82
2024-05-09T22:33:32.839Z,88.62
2024-05-09T22:35:59.601Z,88.88
2024-05-09T22:38:26.210Z,89.00
2024-05-09T22:40:52.972Z,89.44
2024-05-09T22:43:21.634Z,89.07
2024-05-09T22:45:50.430Z,88.72
2024-05-09T22:48:17.751Z,88.79
2024-05-09T22:50:44.683Z,89.46
2024-05-09T22:53:11.300Z,89.01
2024-05-09T22:55:37.912Z,89.36
2024-05-09T22:58:04.743Z,89.53
2024-05-09T23:00:33.093Z,89.76
2024-05-09T23:03:01.529Z,89.91
2024-05-09T23:05:28.922Z,89.62
2024-05-09T23:07:55.836Z,89.37
2024-05-09T23:10:32.317Z,89.09
2024-05-09T23:13:03.798Z,90.17
2024-05-09T23:15:30.792Z,89.46
2024-05-09T23:17:58.276Z,89.77
2024-05-09T23:20:33.857Z,89.92
2024-05-09T23:23:05.770Z,90.08
2024-05-09T23:25:32.570Z,89.78
2024-05-09T23:27:59.400Z,89.96
2024-05-09T23:30:34.219Z,89.65
2024-05-09T23:33:05.566Z,90.19
2024-05-09T23:35:32.609Z,90.30
2024-05-09T23:37:59.543Z,89.88
2024-05-09T23:40:37.023Z,90.52
2024-05-09T23:43:07.419Z,89.98
2024-05-09T23:45:34.596Z,90.12
2024-05-09T23:48:01.702Z,90.34
2024-05-09T23:50:35.782Z,90.02
2024-05-09T23:53:06.329Z,90.44
2024-05-09T23:55:33.841Z,90.60
2024-05-09T23:58:00.874Z,90.11
